Time;durP1;ratioP1;P1;durP2;ratioP2;P2;SDS_P1;SDS_P2;PMS_P1;PMS_P2;Temp;Humidity;BMP_temperature;BMP_pressure;BME280_temperature;BME280_humidity;BME280_pressure;Samples;Min_cycle;Max_cycle;Signal;HPM_P1;HPM_P2
2023/06/15 00:02:19;;;;;;;;;26.25;23.25;;;;;;;;5049407;28;8812;-82
2023/06/15 00:04:52;;;;;;;;;19.50;19.50;;;;;;;;5048649;28;8881;-82
2023/06/15 00:07:20;;;;;;;;;22.75;20.00;;;;;;;;5049928;28;8873;-81
2023/06/15 00:09:47;;;;;;;;;18.50;18.25;;;;;;;;5049026;28;8865;-80
2023/06/15 00:12:15;;;;;;;;;18.25;18.25;;;;;;;;5049486;28;8864;-81
2023/06/15 00:14:42;;;;;;;;;22.00;22.00;;;;;;;;5049270;28;8863;-82
2023/06/15 00:17:11;;;;;;;;;20.50;18.75;;;;;;;;5048839;28;8892;-81
2023/06/15 00:19:39;;;;;;;;;20.25;19.75;;;;;;;;5038371;28;8960;-82
2023/06/15 00:22:09;;;;;;;;;22.25;20.75;;;;;;;;5049786;28;8955;-82
2023/06/15 00:24:37;;;;;;;;;21.50;21.50;;;;;;;;5048933;28;9355;-83
2023/06/15 00:27:07;;;;;;;;;20.00;20.00;;;;;;;;5049228;28;8845;-82
2023/06/15 00:29:34;;;;;;;;;20.25;18.50;;;;;;;;5049231;28;8857;-82
2023/06/15 00:32:02;;;;;;;;;20.75;20.75;;;;;;;;5048274;28;8802;-81
2023/06/15 00:34:29;;;;;;;;;22.25;20.25;;;;;;;;5050261;28;8934;-82
2023/06/15 00:36:57;;;;;;;;;17.25;17.25;;;;;;;;5051672;28;9755;-82
2023/06/15 00:39:28;;;;;;;;;22.00;19.75;;;;;;;;5051550;28;8957;-82
2023/06/15 00:41:55;;;;;;;;;18.25;18.25;;;;;;;;5046642;28;8846;-82
2023/06/15 00:44:22;;;;;;;;;21.00;21.00;;;;;;;;5049711;28;8908;-84
2023/06/15 00:46:50;;;;;;;;;19.00;19.00;;;;;;;;5063743;28;8941;-82
2023/06/15 00:49:17;;;;;;;;;16.50;16.50;;;;;;;;5055519;28;8837;-83
2023/06/15 00:51:45;;;;;;;;;20.50;20.50;;;;;;;;5057399;28;8893;-84
2023/06/15 00:54:13;;;;;;;;;23.50;20.25;;;;;;;;5052947;28;8979;-83
2023/06/15 00:56:42;;;;;;;;;22.00;22.00;;;;;;;;5063251;28;8874;-84
2023/06/15 00:59:09;;;;;;;;;16.75;14.00;;;;;;;;5052014;28;8845;-83
2023/06/15 01:01:37;;;;;;;;;22.00;21.00;;;;;;;;5052391;28;8863;-85
2023/06/15 01:04:06;;;;;;;;;20.75;19.00;;;;;;;;5051396;28;8886;-85
2023/06/15 01:06:37;;;;;;;;;19.00;19.00;;;;;;;;5058422;28;8861;-85
2023/06/15 01:09:05;;;;;;;;;16.00;16.00;;;;;;;;5050311;28;8878;-85
2023/06/15 01:11:34;;;;;;;;;19.75;18.00;;;;;;;;5049687;28;8949;-86
2023/06/15 01:14:07;;;;;;;;;17.75;17.75;;;;;;;;5049615;28;8929;-82
2023/06/15 01:16:38;;;;;;;;;17.75;16.50;;;;;;;;5049334;28;8865;-81
2023/06/15 01:19:09;;;;;;;;;19.00;19.00;;;;;;;;5048922;28;8877;-82
2023/06/15 01:21:37;;;;;;;;;19.67;19.67;;;;;;;;5048404;28;9132;-83
2023/06/15 01:24:19;;;;;;;;;20.00;18.50;;;;;;;;5049472;28;9105;-82
2023/06/15 01:26:49;;;;;;;;;18.33;18.33;;;;;;;;5053029;28;9636;-82
2023/06/15 01:29:17;;;;;;;;;16.25;16.25;;;;;;;;5041011;28;9076;-83
2023/06/15 01:31:45;;;;;;;;;20.00;18.50;;;;;;;;5052386;28;8805;-82
2023/06/15 01:34:12;;;;;;;;;19.75;19.75;;;;;;;;5060221;28;8855;-82
2023/06/15 01:36:39;;;;;;;;;15.75;15.25;;;;;;;;5058624;28;8885;-83
2023/06/15 01:39:07;;;;;;;;;18.00;18.00;;;;;;;;5055156;28;8861;-82
2023/06/15 01:41:35;;;;;;;;;16.50;16.00;;;;;;;;5046885;28;8975;-83
2023/06/15 01:44:04;;;;;;;;;17.75;16.75;;;;;;;;5041200;28;8885;-81
2023/06/15 01:46:32;;;;;;;;;16.00;16.00;;;;;;;;5053915;28;8951;-86
2023/06/15 01:49:00;;;;;;;;;16.50;16.50;;;;;;;;5044261;28;8958;-85
2023/06/15 01:51:29;;;;;;;;;16.00;16.00;;;;;;;;5051332;28;8843;-85
2023/06/15 01:53:57;;;;;;;;;15.00;15.00;;;;;;;;5051974;28;9011;-82
2023/06/15 01:56:26;;;;;;;;;18.00;17.33;;;;;;;;5051362;28;8937;-82
2023/06/15 01:58:54;;;;;;;;;18.33;16.00;;;;;;;;5051781;28;8944;-82
2023/06/15 02:01:23;;;;;;;;;19.33;19.33;;;;;;;;5050486;28;8884;-83
2023/06/15 02:03:54;;;;;;;;;15.00;12.33;;;;;;;;5051119;28;9098;-83
2023/06/15 02:06:29;;;;;;;;;17.00;15.00;;;;;;;;5051239;28;8945;-83
2023/06/15 02:08:56;;;;;;;;;18.67;17.00;;;;;;;;5051354;28;9021;-81
2023/06/15 02:11:23;;;;;;;;;14.67;13.00;;;;;;;;5051497;28;9082;-82
2023/06/15 02:13:52;;;;;;;;;14.00;13.00;;;;;;;;5051569;28;9008;-82
2023/06/15 02:16:20;;;;;;;;;16.00;15.00;;;;;;;;5051937;28;9011;-80
2023/06/15 02:18:51;;;;;;;;;15.67;14.33;;;;;;;;5051807;28;9140;-81
2023/06/15 02:21:18;;;;;;;;;16.00;16.00;;;;;;;;5052222;28;9098;-81
2023/06/15 02:23:46;;;;;;;;;15.33;13.33;;;;;;;;5051655;28;9265;-83
2023/06/15 02:26:14;;;;;;;;;17.50;17.50;;;;;;;;5042829;28;9038;-82
2023/06/15 02:28:41;;;;;;;;;18.33;15.67;;;;;;;;5051138;28;9123;-82
2023/06/15 02:31:11;;;;;;;;;15.00;15.00;;;;;;;;5049753;28;9081;-83
2023/06/15 02:33:38;;;;;;;;;16.00;14.33;;;;;;;;5052513;28;8934;-82
2023/06/15 02:36:07;;;;;;;;;13.00;12.33;;;;;;;;5053362;28;9039;-82
2023/06/15 02:38:37;;;;;;;;;13.00;12.00;;;;;;;;5050940;28;9024;-83
2023/06/15 02:41:04;;;;;;;;;12.00;10.33;;;;;;;;5050612;28;9100;-82
2023/06/15 02:43:31;;;;;;;;;13.00;13.00;;;;;;;;5053575;28;9119;-86
2023/06/15 02:46:00;;;;;;;;;15.00;13.33;;;;;;;;5052789;28;9078;-86
2023/06/15 02:48:28;;;;;;;;;11.67;11.67;;;;;;;;5053821;28;9138;-84
2023/06/15 02:50:56;;;;;;;;;12.00;12.00;;;;;;;;5052272;28;8937;-85
2023/06/15 02:53:24;;;;;;;;;15.00;14.00;;;;;;;;5052233;28;9080;-85
2023/06/15 02:55:52;;;;;;;;;12.67;12.00;;;;;;;;5050774;28;9075;-85
2023/06/15 02:58:20;;;;;;;;;14.67;13.00;;;;;;;;5065947;28;9033;-82
2023/06/15 03:00:49;;;;;;;;;14.00;14.00;;;;;;;;5054509;28;9024;-87
2023/06/15 03:03:27;;;;;;;;;11.67;11.33;;;;;;;;5050901;28;9085;-83
2023/06/15 03:05:58;;;;;;;;;11.00;11.00;;;;;;;;5053502;28;9066;-83
2023/06/15 03:08:31;;;;;;;;;12.33;12.33;;;;;;;;5050294;28;9178;-83
2023/06/15 03:10:58;;;;;;;;;14.33;14.33;;;;;;;;5060417;28;9067;-82
2023/06/15 03:13:26;;;;;;;;;16.33;15.67;;;;;;;;5066317;28;9110;-81
2023/06/15 03:15:55;;;;;;;;;12.67;11.67;;;;;;;;5066137;28;9312;-80
2023/06/15 03:18:23;;;;;;;;;15.33;14.00;;;;;;;;5066714;28;9207;-81
2023/06/15 03:20:53;;;;;;;;;20.67;19.33;;;;;;;;5067125;28;9359;-83
2023/06/15 03:23:21;;;;;;;;;17.33;17.33;;;;;;;;5056846;28;9343;-81
2023/06/15 03:25:51;;;;;;;;;12.67;12.67;;;;;;;;5065152;28;9250;-82
2023/06/15 03:28:27;;;;;;;;;11.33;11.33;;;;;;;;5059915;28;9251;-82
2023/06/15 03:30:57;;;;;;;;;15.00;15.00;;;;;;;;5062109;28;9296;-80
2023/06/15 03:33:29;;;;;;;;;11.67;9.67;;;;;;;;5069680;28;9318;-82
2023/06/15 03:36:01;;;;;;;;;19.67;16.00;;;;;;;;5060418;28;9183;-83
2023/06/15 03:38:31;;;;;;;;;16.00;15.00;;;;;;;;5064591;28;9239;-76
2023/06/15 03:40:59;;;;;;;;;14.67;13.00;;;;;;;;5052299;28;9415;-77
2023/06/15 03:43:26;;;;;;;;;15.00;14.00;;;;;;;;5049769;28;9302;-79
2023/06/15 03:45:56;;;;;;;;;14.67;14.67;;;;;;;;5056700;28;9396;-78
2023/06/15 03:48:23;;;;;;;;;15.00;15.00;;;;;;;;5056882;28;9351;-78
2023/06/15 03:50:52;;;;;;;;;11.33;11.33;;;;;;;;5058677;28;9266;-80
2023/06/15 03:53:20;;;;;;;;;15.33;13.67;;;;;;;;5053768;28;9318;-78
2023/06/15 03:55:49;;;;;;;;;18.25;17.00;;;;;;;;5060244;28;9395;-78
2023/06/15 03:58:21;;;;;;;;;17.75;17.75;;;;;;;;5062499;28;9668;-82
2023/06/15 04:00:50;;;;;;;;;13.67;13.67;;;;;;;;5055626;28;9505;-80
2023/06/15 04:03:18;;;;;;;;;15.50;15.00;;;;;;;;5057073;28;9410;-80
2023/06/15 04:05:46;;;;;;;;;16.33;16.33;;;;;;;;5056317;28;9386;-79
2023/06/15 04:08:13;;;;;;;;;16.33;16.33;;;;;;;;5044282;28;9367;-79
2023/06/15 04:10:40;;;;;;;;;15.67;15.67;;;;;;;;5052521;28;9896;-80
2023/06/15 04:13:08;;;;;;;;;17.00;17.00;;;;;;;;5056755;28;9430;-79
2023/06/15 04:15:36;;;;;;;;;18.25;17.75;;;;;;;;5059653;28;9325;-80
2023/06/15 04:18:04;;;;;;;;;17.75;17.75;;;;;;;;5050635;28;9474;-78
2023/06/15 04:20:32;;;;;;;;;14.00;14.00;;;;;;;;5055738;28;9681;-81
2023/06/15 04:23:00;;;;;;;;;13.00;13.00;;;;;;;;5049351;28;9419;-79
2023/06/15 04:25:28;;;;;;;;;14.67;14.67;;;;;;;;5049604;28;10235;-79
2023/06/15 04:27:57;;;;;;;;;13.00;13.00;;;;;;;;5049698;28;9416;-78
2023/06/15 04:30:27;;;;;;;;;13.67;13.67;;;;;;;;5050201;28;9297;-79
2023/06/15 04:32:59;;;;;;;;;18.67;15.67;;;;;;;;5037673;28;9415;-82
2023/06/15 04:35:28;;;;;;;;;14.00;14.00;;;;;;;;5049515;28;9335;-80
2023/06/15 04:37:58;;;;;;;;;16.33;16.33;;;;;;;;5058381;28;9336;-82
2023/06/15 04:40:25;;;;;;;;;14.00;14.00;;;;;;;;5049154;28;9411;-82
2023/06/15 04:42:54;;;;;;;;;15.00;15.00;;;;;;;;5048117;28;9269;-79
2023/06/15 04:45:22;;;;;;;;;13.00;13.00;;;;;;;;5061366;28;9254;-79
2023/06/15 04:47:49;;;;;;;;;18.00;16.67;;;;;;;;5048667;28;9164;-80
2023/06/15 04:50:18;;;;;;;;;15.67;15.67;;;;;;;;5055584;28;9327;-83
2023/06/15 04:52:46;;;;;;;;;13.67;13.67;;;;;;;;5055576;28;9358;-79
2023/06/15 04:55:13;;;;;;;;;14.67;14.67;;;;;;;;5054136;28;9187;-82
2023/06/15 04:57:40;;;;;;;;;17.00;16.00;;;;;;;;5056191;28;9137;-77
2023/06/15 05:00:10;;;;;;;;;14.33;14.33;;;;;;;;5042664;28;9098;-77
2023/06/15 05:02:37;;;;;;;;;15.33;14.67;;;;;;;;5068571;28;9085;-76
2023/06/15 05:05:04;;;;;;;;;21.33;16.33;;;;;;;;5054802;28;9271;-83
2023/06/15 05:07:33;;;;;;;;;18.67;15.00;;;;;;;;5052073;28;9205;-81
2023/06/15 05:10:03;;;;;;;;;13.00;13.00;;;;;;;;5052462;28;9266;-80
2023/06/15 05:12:31;;;;;;;;;16.00;16.00;;;;;;;;5052141;28;9026;-82
2023/06/15 05:14:58;;;;;;;;;18.00;18.00;;;;;;;;5043933;28;9215;-80
2023/06/15 05:17:26;;;;;;;;;16.33;16.33;;;;;;;;5055837;28;8991;-79
2023/06/15 05:19:59;;;;;;;;;19.67;19.67;;;;;;;;5051601;28;8965;-80
2023/06/15 05:22:29;;;;;;;;;18.25;18.00;;;;;;;;5053583;28;8927;-80
2023/06/15 05:24:58;;;;;;;;;19.00;19.00;;;;;;;;5054768;28;8849;-81
2023/06/15 05:27:25;;;;;;;;;21.67;21.00;;;;;;;;5043813;28;8956;-81
2023/06/15 05:29:53;;;;;;;;;18.75;18.75;;;;;;;;5060299;28;9027;-81
2023/06/15 05:32:37;;;;;;;;;19.25;19.25;;;;;;;;5052565;28;8849;-80
2023/06/15 05:35:05;;;;;;;;;17.00;17.00;;;;;;;;5054107;28;8869;-81
2023/06/15 05:37:33;;;;;;;;;18.50;17.25;;;;;;;;5053777;28;8885;-81
2023/06/15 05:40:02;;;;;;;;;16.25;15.75;;;;;;;;5064226;28;8967;-82
2023/06/15 05:42:33;;;;;;;;;14.00;14.00;;;;;;;;5056592;28;8880;-81
2023/06/15 05:45:09;;;;;;;;;11.75;11.25;;;;;;;;5061709;28;8939;-82
2023/06/15 05:47:36;;;;;;;;;16.50;16.50;;;;;;;;5054059;28;8866;-82
2023/06/15 05:50:10;;;;;;;;;16.50;14.50;;;;;;;;5064704;28;9029;-80
2023/06/15 05:52:37;;;;;;;;;15.25;14.00;;;;;;;;5065563;28;9414;-81
2023/06/15 05:55:07;;;;;;;;;15.75;14.75;;;;;;;;5071061;28;8851;-85
2023/06/15 05:57:35;;;;;;;;;16.50;15.50;;;;;;;;5071168;28;8924;-82
2023/06/15 06:00:04;;;;;;;;;13.75;13.75;;;;;;;;5052856;28;8849;-83
2023/06/15 06:02:31;;;;;;;;;15.75;15.75;;;;;;;;5070653;28;8800;-81
2023/06/15 06:05:01;;;;;;;;;14.00;11.50;;;;;;;;5064628;28;8862;-80
2023/06/15 06:07:31;;;;;;;;;15.50;13.50;;;;;;;;5052822;28;8869;-80
2023/06/15 06:09:59;;;;;;;;;14.00;14.00;;;;;;;;5073755;28;9757;-80
2023/06/15 06:12:29;;;;;;;;;14.50;14.50;;;;;;;;5059744;28;9004;-82
2023/06/15 06:14:56;;;;;;;;;17.50;15.75;;;;;;;;5051092;28;8877;-80
2023/06/15 06:17:25;;;;;;;;;16.75;16.25;;;;;;;;5051692;28;8984;-79
2023/06/15 06:19:52;;;;;;;;;16.50;16.00;;;;;;;;5053265;28;8845;-81
2023/06/15 06:22:22;;;;;;;;;14.75;13.75;;;;;;;;5052506;28;8880;-81
2023/06/15 06:24:49;;;;;;;;;18.25;15.25;;;;;;;;5053907;28;8976;-80
2023/06/15 06:27:16;;;;;;;;;14.00;14.00;;;;;;;;5055527;28;8849;-81
2023/06/15 06:29:45;;;;;;;;;13.00;13.00;;;;;;;;5052690;28;9029;-83
2023/06/15 06:32:15;;;;;;;;;14.00;14.00;;;;;;;;5042391;28;8823;-81
2023/06/15 06:34:43;;;;;;;;;16.25;16.25;;;;;;;;5029885;28;9316;-82
2023/06/15 06:37:13;;;;;;;;;14.00;13.75;;;;;;;;5030253;28;8845;-82
2023/06/15 06:39:41;;;;;;;;;11.00;11.00;;;;;;;;5029774;28;8904;-81
2023/06/15 06:42:12;;;;;;;;;14.00;11.25;;;;;;;;5030309;28;8931;-82
2023/06/15 06:45:09;;;;;;;;;10.25;10.25;;;;;;;;5030060;28;8855;-80
2023/06/15 06:47:48;;;;;;;;;10.25;10.25;;;;;;;;5025483;28;8883;-82
2023/06/15 06:50:15;;;;;;;;;11.00;11.00;;;;;;;;5035297;28;8879;-81
2023/06/15 06:52:43;;;;;;;;;10.75;10.75;;;;;;;;5038078;28;8967;-80
2023/06/15 06:55:10;;;;;;;;;11.50;10.50;;;;;;;;5031350;28;8880;-85
2023/06/15 06:57:38;;;;;;;;;9.75;9.25;;;;;;;;5029480;28;8910;-80
2023/06/15 07:00:06;;;;;;;;;8.50;8.50;;;;;;;;5032940;28;9019;-80
2023/06/15 07:02:34;;;;;;;;;12.25;9.50;;;;;;;;5029212;28;8831;-81
2023/06/15 07:05:02;;;;;;;;;11.75;11.75;;;;;;;;5031734;28;8865;-79
2023/06/15 07:07:30;;;;;;;;;10.25;10.25;;;;;;;;5031385;28;8853;-81
2023/06/15 07:09:57;;;;;;;;;10.25;10.25;;;;;;;;5031144;28;8861;-81
2023/06/15 07:12:26;;;;;;;;;9.00;9.00;;;;;;;;5028364;28;8915;-81
2023/06/15 07:14:56;;;;;;;;;12.00;9.50;;;;;;;;5040752;28;8849;-81
2023/06/15 07:17:23;;;;;;;;;10.25;8.50;;;;;;;;5029967;28;8848;-83
2023/06/15 07:19:53;;;;;;;;;9.75;9.75;;;;;;;;5042886;28;9772;-81
2023/06/15 07:22:21;;;;;;;;;8.60;8.60;;;;;;;;5044415;28;8874;-84
2023/06/15 07:24:49;;;;;;;;;9.60;9.60;;;;;;;;5022087;28;8948;-82
2023/06/15 07:27:16;;;;;;;;;11.20;9.80;;;;;;;;5025617;28;9015;-82
2023/06/15 07:29:43;;;;;;;;;10.20;10.20;;;;;;;;5029519;28;8979;-82
2023/06/15 07:32:11;;;;;;;;;10.60;10.60;;;;;;;;5028487;28;8915;-83
2023/06/15 07:34:38;;;;;;;;;13.80;9.60;;;;;;;;5029261;28;8931;-81
2023/06/15 07:37:06;;;;;;;;;7.00;7.00;;;;;;;;5039444;28;8889;-79
2023/06/15 07:39:36;;;;;;;;;9.40;9.40;;;;;;;;5029329;28;8908;-81
2023/06/15 07:42:09;;;;;;;;;7.20;7.20;;;;;;;;5045187;28;8848;-82
2023/06/15 07:44:36;;;;;;;;;7.40;7.40;;;;;;;;5056205;28;8932;-82
2023/06/15 07:47:06;;;;;;;;;10.20;10.20;;;;;;;;5048413;28;8877;-80
2023/06/15 07:49:33;;;;;;;;;12.20;10.80;;;;;;;;5048427;28;8925;-80
2023/06/15 07:52:00;;;;;;;;;8.80;8.80;;;;;;;;5048254;28;8894;-83
2023/06/15 07:54:28;;;;;;;;;9.00;9.00;;;;;;;;5049253;28;8963;-80
2023/06/15 07:56:59;;;;;;;;;9.00;9.00;;;;;;;;5048453;28;8867;-79
2023/06/15 07:59:26;;;;;;;;;11.20;11.20;;;;;;;;5048022;28;8876;-81
2023/06/15 08:01:54;;;;;;;;;11.00;9.40;;;;;;;;5044811;28;8805;-80
2023/06/15 08:04:21;;;;;;;;;9.00;7.80;;;;;;;;5028512;28;8865;-81
2023/06/15 08:06:48;;;;;;;;;11.00;11.00;;;;;;;;5024562;28;8846;-81
2023/06/15 08:09:15;;;;;;;;;10.00;9.60;;;;;;;;5032255;28;8881;-81
2023/06/15 08:11:47;;;;;;;;;11.60;10.00;;;;;;;;5018540;28;8954;-81
2023/06/15 08:14:19;;;;;;;;;9.20;7.80;;;;;;;;5042177;28;8854;-81
2023/06/15 08:16:46;;;;;;;;;9.20;9.20;;;;;;;;5030310;28;8857;-81
2023/06/15 08:19:13;;;;;;;;;8.80;8.80;;;;;;;;5030967;28;8872;-81
2023/06/15 08:21:41;;;;;;;;;8.80;8.80;;;;;;;;5028938;28;8861;-81
2023/06/15 08:24:08;;;;;;;;;7.80;7.80;;;;;;;;5028580;28;8960;-80
2023/06/15 08:26:38;;;;;;;;;10.20;10.20;;;;;;;;5032055;28;8916;-81
2023/06/15 08:29:06;;;;;;;;;11.20;11.20;;;;;;;;5028290;28;8988;-80
2023/06/15 08:31:38;;;;;;;;;9.20;9.20;;;;;;;;5022585;28;8924;-81
2023/06/15 08:34:05;;;;;;;;;8.80;8.80;;;;;;;;5027849;28;8881;-80
2023/06/15 08:36:32;;;;;;;;;8.80;8.80;;;;;;;;5028093;28;8853;-81
2023/06/15 08:38:59;;;;;;;;;8.80;8.80;;;;;;;;5028438;28;8888;-81
2023/06/15 08:41:27;;;;;;;;;10.80;10.80;;;;;;;;5028594;28;8873;-80
2023/06/15 08:43:56;;;;;;;;;8.00;8.00;;;;;;;;5029621;28;8853;-79
2023/06/15 08:46:25;;;;;;;;;8.40;8.00;;;;;;;;5029779;28;8877;-80
2023/06/15 08:48:55;;;;;;;;;9.40;9.40;;;;;;;;5029302;28;8923;-80
2023/06/15 08:51:23;;;;;;;;;9.00;9.00;;;;;;;;5027895;28;9659;-80
2023/06/15 08:53:54;;;;;;;;;7.60;7.60;;;;;;;;5027828;28;8875;-81
2023/06/15 08:56:26;;;;;;;;;8.40;8.40;;;;;;;;5027543;28;9709;-80
2023/06/15 08:58:53;;;;;;;;;9.00;9.00;;;;;;;;5028182;28;8853;-80
2023/06/15 09:01:22;;;;;;;;;7.40;6.80;;;;;;;;5027029;28;8939;-80
2023/06/15 09:03:53;;;;;;;;;10.00;10.00;;;;;;;;5035704;28;8848;-80
2023/06/15 09:06:21;;;;;;;;;10.40;10.40;;;;;;;;5038071;28;8910;-80
2023/06/15 09:08:50;;;;;;;;;9.60;9.60;;;;;;;;5042576;28;8974;-80
2023/06/15 09:11:18;;;;;;;;;9.80;9.40;;;;;;;;5038755;28;8871;-80
2023/06/15 09:13:46;;;;;;;;;9.40;9.40;;;;;;;;5042350;28;8861;-80
2023/06/15 09:16:13;;;;;;;;;9.80;8.60;;;;;;;;5038291;28;8951;-80
2023/06/15 09:18:45;;;;;;;;;10.20;10.20;;;;;;;;5031433;28;9613;-79
2023/06/15 09:21:14;;;;;;;;;10.80;10.20;;;;;;;;5032280;28;8880;-80
2023/06/15 09:23:44;;;;;;;;;10.40;9.00;;;;;;;;5027784;28;8874;-80
2023/06/15 09:26:22;;;;;;;;;9.20;8.60;;;;;;;;5027925;28;8860;-80
2023/06/15 09:28:49;;;;;;;;;8.80;8.80;;;;;;;;5027401;28;8887;-80
2023/06/15 09:31:30;;;;;;;;;7.40;7.40;;;;;;;;5027134;28;9350;-80
2023/06/15 09:34:05;;;;;;;;;8.80;8.00;;;;;;;;5024513;28;8863;-80
2023/06/15 09:36:40;;;;;;;;;7.40;7.40;;;;;;;;5026850;28;8868;-80
2023/06/15 09:39:09;;;;;;;;;9.20;8.20;;;;;;;;5027244;28;8861;-80
2023/06/15 09:41:37;;;;;;;;;8.20;8.20;;;;;;;;5026844;28;8856;-80
2023/06/15 09:44:06;;;;;;;;;10.00;10.00;;;;;;;;5033957;28;8876;-81
2023/06/15 09:46:34;;;;;;;;;10.20;10.20;;;;;;;;5036075;28;8880;-80
2023/06/15 09:49:02;;;;;;;;;7.80;7.80;;;;;;;;5031816;28;9643;-80
2023/06/15 09:51:36;;;;;;;;;8.00;8.00;;;;;;;;5030966;28;8926;-80
2023/06/15 09:54:07;;;;;;;;;7.60;7.60;;;;;;;;5036730;28;8878;-81
2023/06/15 09:56:42;;;;;;;;;8.20;8.00;;;;;;;;5030742;28;9629;-80
2023/06/15 09:59:10;;;;;;;;;7.00;7.00;;;;;;;;5031163;28;8840;-80
2023/06/15 10:01:38;;;;;;;;;8.00;8.00;;;;;;;;5030434;28;9431;-80
2023/06/15 10:04:06;;;;;;;;;7.60;7.60;;;;;;;;5036010;28;8840;-80
2023/06/15 10:06:34;;;;;;;;;6.40;6.40;;;;;;;;5040465;28;8929;-81
2023/06/15 10:09:06;;;;;;;;;7.80;7.80;;;;;;;;5032015;28;9769;-81
2023/06/15 10:11:36;;;;;;;;;11.00;9.40;;;;;;;;5042109;28;8877;-80
2023/06/15 10:14:09;;;;;;;;;8.80;8.80;;;;;;;;5038600;28;8848;-80
2023/06/15 10:16:38;;;;;;;;;8.80;8.80;;;;;;;;5028687;28;8876;-80
2023/06/15 10:19:10;;;;;;;;;9.40;9.40;;;;;;;;5034024;28;8974;-80
2023/06/15 10:21:39;;;;;;;;;8.00;8.00;;;;;;;;5033934;28;8856;-80
2023/06/15 10:24:13;;;;;;;;;10.20;9.00;;;;;;;;5040298;28;9733;-81
2023/06/15 10:26:41;;;;;;;;;9.40;9.40;;;;;;;;5024287;28;9053;-80
2023/06/15 10:29:13;;;;;;;;;7.80;7.80;;;;;;;;5039690;28;8960;-81
2023/06/15 10:31:45;;;;;;;;;10.00;10.00;;;;;;;;5049176;28;8846;-80
2023/06/15 10:34:17;;;;;;;;;10.60;9.20;;;;;;;;5056662;28;8869;-81
2023/06/15 10:36:50;;;;;;;;;8.80;8.80;;;;;;;;5057383;28;8865;-80
2023/06/15 10:39:23;;;;;;;;;6.00;6.00;;;;;;;;5050677;28;9668;-81
2023/06/15 10:41:53;;;;;;;;;10.00;8.40;;;;;;;;5052492;28;9766;-80
2023/06/15 10:44:21;;;;;;;;;8.40;8.20;;;;;;;;5050494;28;9073;-81
2023/06/15 10:46:48;;;;;;;;;8.00;8.00;;;;;;;;5050945;28;8858;-80
2023/06/15 10:49:15;;;;;;;;;9.00;9.00;;;;;;;;5060814;28;8832;-80
2023/06/15 10:51:51;;;;;;;;;9.00;9.00;;;;;;;;5064622;28;8859;-80
2023/06/15 10:54:23;;;;;;;;;8.20;8.20;;;;;;;;5050130;28;8873;-81
2023/06/15 10:56:53;;;;;;;;;9.80;9.80;;;;;;;;5049607;28;9020;-81
2023/06/15 10:59:39;;;;;;;;;7.00;7.00;;;;;;;;5062702;28;8872;-80
2023/06/15 11:02:40;;;;;;;;;8.60;8.60;;;;;;;;5011769;28;8801;-80
2023/06/15 11:05:09;;;;;;;;;8.20;6.60;;;;;;;;5035773;28;8845;-81
2023/06/15 11:07:37;;;;;;;;;8.00;8.00;;;;;;;;5031848;28;8840;-78
2023/06/15 11:10:14;;;;;;;;;7.80;6.00;;;;;;;;5029412;28;8845;-79
2023/06/15 11:12:43;;;;;;;;;6.00;6.00;;;;;;;;5029080;28;8853;-79
2023/06/15 11:15:13;;;;;;;;;7.80;7.80;;;;;;;;5028874;28;8865;-81
2023/06/15 11:17:57;;;;;;;;;5.20;5.20;;;;;;;;5028802;28;8869;-79
2023/06/15 11:20:44;;;;;;;;;7.60;7.00;;;;;;;;5024025;28;9830;-78
2023/06/15 11:23:12;;;;;;;;;6.60;6.60;;;;;;;;5027667;28;8872;-80
2023/06/15 11:25:44;;;;;;;;;6.20;6.20;;;;;;;;5029077;28;8900;-80
2023/06/15 11:28:12;;;;;;;;;8.60;8.60;;;;;;;;5029139;28;8904;-79
2023/06/15 11:30:40;;;;;;;;;6.60;6.60;;;;;;;;5030684;28;8829;-80
2023/06/15 11:33:12;;;;;;;;;8.20;8.20;;;;;;;;5036252;28;8852;-79
2023/06/15 11:35:39;;;;;;;;;7.60;7.60;;;;;;;;5040682;28;8846;-80
2023/06/15 11:38:07;;;;;;;;;9.80;9.80;;;;;;;;5045086;28;8991;-79
2023/06/15 11:40:37;;;;;;;;;8.80;8.80;;;;;;;;5035070;28;8858;-80
2023/06/15 11:43:11;;;;;;;;;8.00;6.00;;;;;;;;5028746;28;8860;-80
2023/06/15 11:45:46;;;;;;;;;7.20;7.20;;;;;;;;5025571;28;8844;-82
2023/06/15 11:48:14;;;;;;;;;10.00;8.20;;;;;;;;5026391;28;8881;-80
2023/06/15 11:50:44;;;;;;;;;8.20;8.20;;;;;;;;5029972;28;8897;-79
2023/06/15 11:53:16;;;;;;;;;7.00;7.00;;;;;;;;5031489;28;8880;-79
2023/06/15 11:55:44;;;;;;;;;6.00;6.00;;;;;;;;5031883;28;8874;-79
2023/06/15 11:58:13;;;;;;;;;7.00;7.00;;;;;;;;5028506;28;8873;-78
2023/06/15 12:00:41;;;;;;;;;8.60;7.60;;;;;;;;5037872;28;8819;-81
2023/06/15 12:03:11;;;;;;;;;8.00;8.00;;;;;;;;5054132;28;8822;-81
2023/06/15 12:05:39;;;;;;;;;7.00;7.00;;;;;;;;5057480;28;8864;-81
2023/06/15 12:08:07;;;;;;;;;7.00;7.00;;;;;;;;5060648;28;8848;-81
2023/06/15 12:10:35;;;;;;;;;8.40;8.40;;;;;;;;5049452;28;8893;-82
2023/06/15 12:13:03;;;;;;;;;8.80;8.80;;;;;;;;5056482;28;8858;-81
2023/06/15 12:15:32;;;;;;;;;8.00;8.00;;;;;;;;5049128;28;8889;-81
2023/06/15 12:17:59;;;;;;;;;8.40;8.40;;;;;;;;5050786;28;8866;-82
2023/06/15 12:20:30;;;;;;;;;8.20;8.20;;;;;;;;5059156;28;8875;-81
2023/06/15 12:22:59;;;;;;;;;9.00;8.20;;;;;;;;5054424;28;8985;-81
2023/06/15 12:25:45;;;;;;;;;6.80;6.80;;;;;;;;5055137;28;8873;-81
2023/06/15 12:28:19;;;;;;;;;8.60;8.00;;;;;;;;5038692;28;8896;-81
2023/06/15 12:30:53;;;;;;;;;9.00;9.00;;;;;;;;5047653;28;8830;-81
2023/06/15 12:33:28;;;;;;;;;7.80;7.80;;;;;;;;5051307;28;8862;-81
2023/06/15 12:35:57;;;;;;;;;7.80;6.40;;;;;;;;5049043;28;8997;-81
2023/06/15 12:38:26;;;;;;;;;9.20;9.20;;;;;;;;5051007;28;8842;-81
2023/06/15 12:40:53;;;;;;;;;5.20;5.20;;;;;;;;5049658;28;9004;-80
2023/06/15 12:43:21;;;;;;;;;7.60;6.00;;;;;;;;5054942;28;8905;-81
2023/06/15 12:45:50;;;;;;;;;8.60;8.60;;;;;;;;5056010;28;8869;-81
2023/06/15 12:48:20;;;;;;;;;8.00;8.00;;;;;;;;5058876;28;8860;-81
2023/06/15 12:50:48;;;;;;;;;8.00;8.00;;;;;;;;5054857;28;10154;-81
2023/06/15 12:53:15;;;;;;;;;8.80;8.80;;;;;;;;5054503;28;8890;-80
2023/06/15 12:55:44;;;;;;;;;8.60;7.40;;;;;;;;5056921;28;8913;-81
2023/06/15 12:58:11;;;;;;;;;6.00;6.00;;;;;;;;5057484;28;8862;-80
2023/06/15 13:00:43;;;;;;;;;6.00;6.00;;;;;;;;5057138;28;8765;-81
2023/06/15 13:03:11;;;;;;;;;5.60;4.00;;;;;;;;5057672;28;8862;-81
2023/06/15 13:05:41;;;;;;;;;7.00;7.00;;;;;;;;5058895;28;8844;-81
2023/06/15 13:08:09;;;;;;;;;5.00;5.00;;;;;;;;5055271;28;8862;-81
2023/06/15 13:10:37;;;;;;;;;6.20;6.20;;;;;;;;5059313;28;8852;-80
2023/06/15 13:13:07;;;;;;;;;5.60;5.60;;;;;;;;5054517;28;8835;-81
2023/06/15 13:15:38;;;;;;;;;9.60;8.00;;;;;;;;5060528;28;8864;-80
2023/06/15 13:18:06;;;;;;;;;6.60;6.60;;;;;;;;5054924;28;8924;-80
2023/06/15 13:20:46;;;;;;;;;7.20;7.20;;;;;;;;5065349;28;8880;-80
2023/06/15 13:23:14;;;;;;;;;5.40;5.20;;;;;;;;5063658;28;8862;-79
2023/06/15 13:25:42;;;;;;;;;8.00;6.00;;;;;;;;5064066;28;8916;-80
2023/06/15 13:28:12;;;;;;;;;6.40;5.00;;;;;;;;5067954;28;8844;-80
2023/06/15 13:30:39;;;;;;;;;6.20;6.20;;;;;;;;5057515;28;8929;-80
2023/06/15 13:33:06;;;;;;;;;7.00;6.20;;;;;;;;5063393;28;8941;-80
2023/06/15 13:35:37;;;;;;;;;6.00;6.00;;;;;;;;5052972;28;8897;-80
2023/06/15 13:38:04;;;;;;;;;7.40;6.00;;;;;;;;5056764;28;8844;-80
2023/06/15 13:40:34;;;;;;;;;6.00;6.00;;;;;;;;5065033;28;9029;-80
2023/06/15 13:43:02;;;;;;;;;7.00;7.00;;;;;;;;5052598;28;8854;-81
2023/06/15 13:45:31;;;;;;;;;8.00;8.00;;;;;;;;5049680;28;8864;-81
2023/06/15 13:47:59;;;;;;;;;6.00;6.00;;;;;;;;5051548;28;8920;-81
2023/06/15 13:50:29;;;;;;;;;7.60;6.20;;;;;;;;5038844;28;8843;-80
2023/06/15 13:53:00;;;;;;;;;7.00;7.00;;;;;;;;5051240;28;8874;-80
2023/06/15 13:55:30;;;;;;;;;6.80;6.80;;;;;;;;5051902;28;8855;-81
2023/06/15 13:57:58;;;;;;;;;6.40;6.40;;;;;;;;5051045;28;8966;-80
2023/06/15 14:00:25;;;;;;;;;8.40;8.40;;;;;;;;5048800;28;8891;-81
2023/06/15 14:02:53;;;;;;;;;7.60;7.60;;;;;;;;5052522;28;8878;-80
2023/06/15 14:05:20;;;;;;;;;6.20;6.20;;;;;;;;5051885;28;8931;-80
2023/06/15 14:07:47;;;;;;;;;9.00;9.00;;;;;;;;5052441;28;8908;-81
2023/06/15 14:10:16;;;;;;;;;7.20;7.20;;;;;;;;5051604;28;8951;-80
2023/06/15 14:12:43;;;;;;;;;7.20;7.20;;;;;;;;5051783;28;8858;-80
2023/06/15 14:15:15;;;;;;;;;8.00;8.00;;;;;;;;5051287;28;8843;-81
2023/06/15 14:17:44;;;;;;;;;7.20;7.20;;;;;;;;5053229;28;8843;-81
2023/06/15 14:20:12;;;;;;;;;8.00;6.80;;;;;;;;5051709;28;8869;-81
2023/06/15 14:22:40;;;;;;;;;6.40;6.40;;;;;;;;5052353;28;8986;-85
2023/06/15 14:25:07;;;;;;;;;6.00;6.00;;;;;;;;5052067;28;8842;-81
2023/06/15 14:27:38;;;;;;;;;6.00;6.00;;;;;;;;5046634;28;8898;-82
2023/06/15 14:30:06;;;;;;;;;8.00;8.00;;;;;;;;5051321;28;8912;-80
2023/06/15 14:32:34;;;;;;;;;6.80;6.80;;;;;;;;5030704;28;8858;-79
2023/06/15 14:35:01;;;;;;;;;6.80;6.80;;;;;;;;5026931;28;8896;-79
2023/06/15 14:37:30;;;;;;;;;8.80;8.80;;;;;;;;5031004;28;8929;-79
2023/06/15 14:39:57;;;;;;;;;9.00;6.00;;;;;;;;5032972;28;9002;-79
2023/06/15 14:42:26;;;;;;;;;7.00;7.00;;;;;;;;5038488;28;8873;-78
2023/06/15 14:44:55;;;;;;;;;7.00;7.00;;;;;;;;5034496;28;9001;-79
2023/06/15 14:47:23;;;;;;;;;6.00;6.00;;;;;;;;5031671;28;8887;-79
2023/06/15 14:49:50;;;;;;;;;6.60;6.60;;;;;;;;5031704;28;8974;-80
2023/06/15 14:52:17;;;;;;;;;8.80;7.40;;;;;;;;5038577;28;8876;-79
2023/06/15 14:54:44;;;;;;;;;6.80;5.20;;;;;;;;5040470;28;8890;-79
2023/06/15 14:57:12;;;;;;;;;6.60;6.60;;;;;;;;5038650;28;8881;-79